Time;durP1;ratioP1;P1;durP2;ratioP2;P2;SDS_P1;SDS_P2;PMS_P1;PMS_P2;Temp;Humidity;BMP_temperature;BMP_pressure;BME280_temperature;BME280_humidity;BME280_pressure;Samples;Min_cycle;Max_cycle;Signal;HPM_P1;HPM_P2
2021/11/14 00:06:48;;;;;;;60.80;25.00;;;6.90;99.90;;;;;;20871748;28;20386;-77
2021/11/14 00:16:49;;;;;;;56.53;23.63;;;7.00;99.90;;;;;;20874987;28;20057;-78
2021/11/14 00:26:50;;;;;;;157.57;27.53;;;7.00;99.90;;;;;;20828056;28;20099;-78
2021/11/14 00:36:53;;;;;;;117.37;22.60;;;7.00;99.90;;;;;;20834946;28;20036;-78
2021/11/14 00:46:54;;;;;;;52.90;21.10;;;7.00;99.90;;;;;;20854644;28;20677;-79
2021/11/14 00:56:55;;;;;;;44.37;22.00;;;6.90;99.90;;;;;;20855788;28;20250;-79
2021/11/14 01:06:56;;;;;;;38.73;20.43;;;6.90;99.90;;;;;;20857754;28;20037;-78
2021/11/14 01:16:57;;;;;;;48.00;21.50;;;6.90;99.90;;;;;;20857221;28;20033;-79
2021/11/14 01:26:58;;;;;;;54.33;23.67;;;6.90;99.90;;;;;;20847840;28;20491;-78
2021/11/14 01:36:58;;;;;;;52.07;24.10;;;6.90;99.90;;;;;;20844281;28;20029;-78
2021/11/14 01:46:59;;;;;;;40.97;20.20;;;7.00;99.90;;;;;;20844912;28;20031;-79
2021/11/14 01:57:00;;;;;;;47.03;23.63;;;7.00;99.90;;;;;;20840626;28;20030;-78
2021/11/14 02:07:01;;;;;;;52.37;23.20;;;7.00;99.90;;;;;;20846798;28;20106;-78
2021/11/14 02:17:03;;;;;;;51.40;22.77;;;7.00;99.90;;;;;;20844665;28;20037;-78
2021/11/14 02:27:04;;;;;;;53.97;24.33;;;7.00;99.90;;;;;;20832182;28;20033;-78
2021/11/14 02:37:06;;;;;;;42.90;21.77;;;7.00;99.90;;;;;;20863036;28;20502;-78
2021/11/14 02:47:07;;;;;;;39.92;20.10;;;7.00;99.90;;;;;;20860295;28;20064;-78
2021/11/14 02:57:08;;;;;;;41.63;21.13;;;7.00;99.90;;;;;;20932809;22;20047;-77
2021/11/14 03:07:10;;;;;;;43.83;21.42;;;7.10;99.90;;;;;;20902875;28;20025;-77
2021/11/14 03:17:11;;;;;;;;;;;7.10;99.90;;;;;;20921358;28;20028;-77
2021/11/14 03:27:13;;;;;;;38.53;18.13;;;7.10;99.90;;;;;;20926437;28;19909;-77
2021/11/14 03:37:20;;;;;;;38.85;19.58;;;7.10;99.90;;;;;;20931800;28;20350;-78
2021/11/14 03:47:21;;;;;;;31.65;17.20;;;7.10;99.90;;;;;;20912832;28;20037;-79
2021/11/14 03:57:22;;;;;;;43.67;20.08;;;7.10;99.90;;;;;;20913967;28;20086;-78
2021/11/14 04:07:23;;;;;;;40.13;19.33;;;7.10;99.90;;;;;;20934364;28;20365;-78
2021/11/14 04:17:24;;;;;;;37.80;18.80;;;7.10;99.90;;;;;;20933863;28;20098;-78
2021/11/14 04:27:26;;;;;;;38.10;18.40;;;7.10;99.90;;;;;;20932501;28;20496;-77
2021/11/14 04:37:27;;;;;;;39.83;19.52;;;7.20;99.90;;;;;;20912405;28;20039;-78
2021/11/14 04:47:27;;;;;;;35.77;17.40;;;7.20;99.90;;;;;;20912524;28;20495;-78
2021/11/14 04:57:29;;;;;;;35.43;16.90;;;7.20;99.90;;;;;;20924471;28;20529;-78
2021/11/14 05:07:30;;;;;;;40.35;19.48;;;7.20;99.90;;;;;;20922415;28;20419;-78
2021/11/14 05:17:30;;;;;;;57.27;22.70;;;7.10;99.90;;;;;;20933043;28;20060;-78
2021/11/14 05:27:31;;;;;;;49.13;20.20;;;7.10;99.90;;;;;;20920320;28;20037;-77
2021/11/14 05:37:32;;;;;;;48.03;20.73;;;7.10;99.90;;;;;;20913693;28;20545;-77
2021/11/14 05:47:33;;;;;;;63.73;26.70;;;7.00;99.90;;;;;;20912809;28;20596;-78
2021/11/14 05:57:50;;;;;;;67.60;28.53;;;7.00;99.90;;;;;;20932256;28;20130;-76
2021/11/14 06:07:51;;;;;;;71.57;28.50;;;7.00;99.90;;;;;;20933999;28;20666;-77
2021/11/14 06:17:51;;;;;;;74.10;29.50;;;7.00;99.90;;;;;;20936638;28;20075;-78
2021/11/14 06:27:52;;;;;;;71.43;27.43;;;7.00;99.90;;;;;;20922017;28;20028;-78
2021/11/14 06:37:53;;;;;;;76.67;29.10;;;7.10;99.90;;;;;;20916779;28;20037;-78
2021/11/14 06:47:54;;;;;;;100.80;34.07;;;7.10;99.90;;;;;;20933607;28;20407;-77
2021/11/14 06:57:55;;;;;;;91.17;31.03;;;7.10;99.90;;;;;;20916661;28;20047;-78
2021/11/14 07:07:56;;;;;;;111.53;33.47;;;7.20;99.90;;;;;;20910212;28;20047;-75
2021/11/14 07:17:57;;;;;;;110.73;34.43;;;7.20;99.90;;;;;;20911452;28;20033;-76
2021/11/14 07:27:58;;;;;;;99.90;32.40;;;7.30;99.90;;;;;;20885400;28;20037;-76
2021/11/14 07:38:00;;;;;;;85.57;30.00;;;7.30;99.90;;;;;;20879224;28;20087;-76
2021/11/14 07:48:01;;;;;;;87.32;29.58;;;7.40;99.90;;;;;;20868600;28;20047;-76
2021/11/14 07:58:05;;;;;;;86.10;30.13;;;7.40;99.90;;;;;;20860985;28;20029;-76
2021/11/14 08:08:08;;;;;;;87.85;31.05;;;7.40;99.90;;;;;;20845901;28;20033;-76
2021/11/14 08:18:09;;;;;;;85.50;31.15;;;7.40;99.90;;;;;;20825471;28;20026;-76
2021/11/14 08:28:10;;;;;;;78.67;29.60;;;7.50;99.90;;;;;;20825073;28;20029;-75
2021/11/14 08:38:11;;;;;;;89.93;35.40;;;7.70;99.90;;;;;;20824164;28;20697;-76
2021/11/14 08:48:12;;;;;;;61.30;25.50;;;7.70;99.90;;;;;;20826169;28;20033;-75
2021/11/14 08:58:12;;;;;;;63.50;25.97;;;7.90;99.90;;;;;;20839260;28;20120;-75
2021/11/14 09:08:14;;;;;;;41.03;18.53;;;7.90;99.90;;;;;;20838749;28;20438;-75
2021/11/14 09:18:17;;;;;;;53.45;24.35;;;8.20;99.90;;;;;;20880342;22;20069;-80
2021/11/14 09:28:19;;;;;;;40.13;18.90;;;8.50;99.90;;;;;;20912454;28;20036;-80
2021/11/14 09:38:21;;;;;;;35.63;16.90;;;8.60;99.90;;;;;;20913161;28;20075;-82
2021/11/14 09:48:22;;;;;;;32.60;16.43;;;8.80;99.90;;;;;;20853706;28;20038;-84
2021/11/14 09:58:23;;;;;;;27.60;16.17;;;9.00;99.90;;;;;;20779308;28;20357;-81
2021/11/14 10:08:25;;;;;;;27.53;14.70;;;8.80;99.90;;;;;;20850242;28;20280;-81
2021/11/14 10:18:25;;;;;;;;;;;9.00;99.90;;;;;;20849416;28;20071;-79
2021/11/14 10:28:28;;;;;;;29.13;15.93;;;8.90;99.90;;;;;;20848360;28;19912;-82
2021/11/14 10:38:35;;;;;;;29.98;16.23;;;9.00;99.90;;;;;;20847564;28;20021;-78
2021/11/14 10:48:37;;;;;;;23.25;13.82;;;9.20;99.90;;;;;;20846387;28;20176;-80
2021/11/14 10:58:41;;;;;;;27.95;15.13;;;9.20;99.90;;;;;;20844674;28;20045;-81
2021/11/14 11:08:45;;;;;;;33.13;16.77;;;9.20;99.90;;;;;;20845031;28;20037;-82
2021/11/14 11:18:58;;;;;;;21.67;12.93;;;9.60;99.90;;;;;;20808224;28;20040;-81
2021/11/14 11:28:59;;;;;;;29.55;14.02;;;9.70;99.90;;;;;;20841610;28;20025;-79
2021/11/14 11:39:01;;;;;;;27.40;13.83;;;9.40;99.90;;;;;;20806189;28;20397;-79
2021/11/14 11:49:05;;;;;;;25.87;14.57;;;9.40;99.90;;;;;;20841188;28;20037;-78
2021/11/14 11:59:36;;;;;;;30.30;14.80;;;9.70;99.90;;;;;;20841322;28;20040;-82
2021/11/14 12:09:51;;;;;;;27.17;14.70;;;9.90;99.90;;;;;;20851575;28;20387;-80
2021/11/14 12:20:02;;;;;;;23.98;12.40;;;9.80;99.90;;;;;;20832966;28;20033;-79
2021/11/14 12:30:14;;;;;;;20.45;10.90;;;10.00;99.90;;;;;;20782646;28;20040;-82
2021/11/14 12:40:21;;;;;;;16.60;9.23;;;10.00;99.90;;;;;;20802771;28;20025;-80
2021/11/14 12:50:29;;;;;;;16.27;9.00;;;9.90;99.90;;;;;;20802661;28;20605;-78
2021/11/14 13:00:33;;;;;;;16.80;9.13;;;9.90;99.90;;;;;;20802711;28;20033;-82
2021/11/14 13:10:49;;;;;;;50.42;21.25;;;10.00;99.90;;;;;;20785666;28;20037;-81
2021/11/14 13:20:55;;;;;;;17.00;9.10;;;10.80;99.90;;;;;;20781980;28;20099;-80
2021/11/14 13:30:57;;;;;;;12.65;6.97;;;11.10;99.90;;;;;;20802077;28;20045;-80
2021/11/14 13:40:58;;;;;;;13.00;8.23;;;10.80;99.90;;;;;;20777998;28;20030;-82
2021/11/14 13:50:59;;;;;;;14.52;7.85;;;10.60;99.90;;;;;;20796797;28;20072;-79
2021/11/14 14:01:02;;;;;;;24.13;10.40;;;10.30;99.90;;;;;;20794709;28;20458;-81
2021/11/14 14:11:06;;;;;;;15.68;8.07;;;10.20;99.90;;;;;;20793655;28;20061;-80
2021/11/14 14:21:07;;;;;;;19.88;8.20;;;10.10;99.90;;;;;;20792789;28;20029;-79
2021/11/14 14:31:14;;;;;;;17.63;8.88;;;10.00;99.90;;;;;;20776430;28;20037;-77
2021/11/14 14:41:19;;;;;;;15.57;7.32;;;9.90;99.90;;;;;;20792432;28;20037;-81
2021/11/14 14:51:21;;;;;;;11.88;6.47;;;9.80;99.90;;;;;;20791387;28;20039;-79
2021/11/14 15:01:34;;;;;;;11.13;5.50;;;9.50;99.90;;;;;;20809469;28;20032;-83
2021/11/14 15:11:35;;;;;;;13.88;5.85;;;9.40;99.90;;;;;;20790828;28;20068;-82
2021/11/14 15:21:36;;;;;;;11.30;5.50;;;9.20;99.90;;;;;;20880887;23;20044;-77
2021/11/14 15:31:37;;;;;;;11.50;5.70;;;9.20;99.90;;;;;;20918647;28;20095;-78
2021/11/14 15:41:38;;;;;;;39.57;13.87;;;9.20;99.90;;;;;;20918104;28;20033;-78
2021/11/14 15:51:40;;;;;;;14.90;8.87;;;9.00;99.90;;;;;;20915056;28;20080;-78
2021/11/14 16:01:41;;;;;;;11.77;7.28;;;9.00;99.90;;;;;;20915590;28;20039;-78
2021/11/14 16:11:42;;;;;;;17.87;7.63;;;9.00;99.90;;;;;;20895144;28;20403;-78
2021/11/14 16:21:43;;;;;;;16.35;8.60;;;8.90;99.90;;;;;;20914779;28;20127;-79
2021/11/14 16:31:44;;;;;;;16.27;7.90;;;8.90;99.90;;;;;;20912329;28;20070;-78
2021/11/14 16:41:45;;;;;;;14.90;7.43;;;8.80;99.90;;;;;;20913409;28;20063;-77
2021/11/14 16:51:46;;;;;;;14.63;7.83;;;8.80;99.90;;;;;;20912876;28;20029;-78
2021/11/14 17:01:47;;;;;;;18.97;8.73;;;8.70;99.90;;;;;;20912778;28;20035;-78
2021/11/14 17:11:48;;;;;;;18.57;9.47;;;8.70;99.90;;;;;;20918026;28;21284;-78
2021/11/14 17:21:49;;;;;;;19.10;9.97;;;8.70;99.90;;;;;;20923840;28;20032;-78
2021/11/14 17:31:49;;;;;;;21.07;10.90;;;8.70;99.90;;;;;;20906276;28;20820;-78
2021/11/14 17:41:50;;;;;;;18.07;10.17;;;8.70;99.90;;;;;;20924053;28;20079;-78
2021/11/14 17:51:51;;;;;;;29.27;13.50;;;8.70;99.90;;;;;;20924097;28;20025;-77
2021/11/14 18:01:52;;;;;;;28.97;13.90;;;8.60;99.90;;;;;;20923354;28;20040;-78
2021/11/14 18:11:54;;;;;;;38.27;14.77;;;8.60;99.90;;;;;;20922234;28;20036;-78
2021/11/14 18:21:56;;;;;;;30.75;15.50;;;8.60;99.90;;;;;;20977295;28;20033;-78
2021/11/14 18:31:57;;;;;;;29.52;14.73;;;8.50;99.90;;;;;;20877689;28;20036;-77
2021/11/14 18:41:58;;;;;;;29.17;14.80;;;8.60;99.90;;;;;;20894049;28;20531;-78
2021/11/14 18:52:02;;;;;;;29.67;13.60;;;8.50;99.90;;;;;;20881318;28;20036;-80
2021/11/14 19:02:04;;;;;;;26.15;13.88;;;8.50;99.90;;;;;;20912185;28;20088;-78
2021/11/14 19:12:06;;;;;;;26.60;12.98;;;8.50;99.90;;;;;;20880732;28;20449;-77
2021/11/14 19:22:11;;;;;;;28.13;13.30;;;8.50;99.90;;;;;;20834825;28;20030;-79
2021/11/14 19:32:13;;;;;;;24.83;12.90;;;8.40;99.90;;;;;;20833138;28;20045;-77
2021/11/14 19:42:18;;;;;;;26.90;13.23;;;8.40;99.90;;;;;;20812091;28;20045;-77
2021/11/14 19:52:19;;;;;;;29.13;14.43;;;8.40;99.90;;;;;;20810334;28;20037;-77
2021/11/14 20:02:20;;;;;;;25.53;13.33;;;8.30;99.90;;;;;;20814537;28;20037;-79
2021/11/14 20:12:21;;;;;;;;;;;8.30;99.90;;;;;;20849377;28;20041;-78
2021/11/14 20:22:22;;;;;;;37.40;15.43;;;8.30;99.90;;;;;;20834571;28;20000;-79
2021/11/14 20:32:24;;;;;;;31.42;15.38;;;8.30;99.90;;;;;;20880307;28;20052;-78
2021/11/14 20:42:25;;;;;;;;;;;8.20;99.90;;;;;;20836272;28;20036;-77
2021/11/14 20:52:26;;;;;;;31.17;15.35;;;8.20;99.90;;;;;;20851465;28;19912;-79
2021/11/14 21:02:27;;;;;;;29.80;14.93;;;8.30;99.90;;;;;;20867267;28;20597;-78
2021/11/14 21:12:28;;;;;;;30.37;14.83;;;8.20;99.90;;;;;;20923794;28;20447;-78
2021/11/14 21:22:29;;;;;;;30.17;14.07;;;8.20;99.90;;;;;;20986401;22;20049;-80
2021/11/14 21:32:30;;;;;;;25.80;14.40;;;8.20;99.90;;;;;;20983434;28;20040;-79
2021/11/14 21:42:35;;;;;;;26.25;12.88;;;8.20;99.90;;;;;;21018601;28;20044;-79
2021/11/14 21:52:35;;;;;;;26.08;13.27;;;8.10;99.90;;;;;;21018670;28;20025;-80
2021/11/14 22:02:36;;;;;;;22.87;11.57;;;8.00;99.90;;;;;;20981783;28;20409;-79
2021/11/14 22:12:37;;;;;;;22.10;11.20;;;8.00;99.90;;;;;;20998774;28;20036;-79
2021/11/14 22:22:39;;;;;;;22.63;10.97;;;7.90;99.90;;;;;;21018692;28;20025;-80
2021/11/14 22:32:40;;;;;;;;;;;8.00;99.90;;;;;;21015603;28;20033;-79
2021/11/14 22:42:42;;;;;;;23.23;11.25;;;7.90;99.90;;;;;;20997711;28;19958;-80
2021/11/14 22:52:43;;;;;;;23.95;11.60;;;8.00;99.90;;;;;;20959033;28;20029;-79
2021/11/14 23:02:44;;;;;;;25.92;11.77;;;7.90;99.90;;;;;;20927961;28;20028;-80
2021/11/14 23:12:45;;;;;;;24.87;11.93;;;7.90;99.90;;;;;;20927624;28;20029;-80
2021/11/14 23:22:47;;;;;;;25.43;12.30;;;7.80;99.90;;;;;;20928331;28;20025;-80
2021/11/14 23:32:49;;;;;;;29.80;13.75;;;7.70;99.90;;;;;;20903370;28;20091;-80
2021/11/14 23:42:51;;;;;;;28.58;12.25;;;7.70;99.90;;;;;;20913261;28;20063;-79
2021/11/14 23:52:52;;;;;;;28.77;12.93;;;7.70;99.90;;;;;;20923626;28;20506;-79
